createdAt,value
2023-05-15T00:00:37.952Z,74.10
2023-05-15T00:03:04.912Z,74.08
2023-05-15T00:05:31.920Z,73.75
2023-05-15T00:07:58.804Z,73.62
2023-05-15T00:10:25.549Z,73.49
2023-05-15T00:12:52.295Z,73.55
2023-05-15T00:15:19.002Z,73.56
2023-05-15T00:17:45.800Z,73.75
2023-05-15T00:20:13.020Z,73.74
2023-05-15T00:22:39.851Z,74.05
2023-05-15T00:25:07.279Z,74.36
2023-05-15T00:27:34.086Z,73.86
2023-05-15T00:30:03.764Z,73.63
2023-05-15T00:32:30.679Z,74.03
2023-05-15T00:34:57.490Z,74.00
2023-05-15T00:37:24.406Z,74.15
2023-05-15T00:39:51.562Z,74.06
2023-05-15T00:42:18.936Z,74.37
2023-05-15T00:44:46.725Z,74.38
2023-05-15T00:47:16.076Z,74.42
2023-05-15T00:49:43.503Z,74.35
2023-05-15T00:52:11.910Z,74.99
2023-05-15T00:54:38.689Z,75.90
2023-05-15T00:57:07.589Z,75.44
2023-05-15T00:59:39.020Z,75.71
2023-05-15T01:02:05.968Z,75.41
2023-05-15T01:04:32.736Z,75.02
2023-05-15T01:06:59.549Z,75.35
2023-05-15T01:09:30.106Z,75.69
2023-05-15T01:11:59.694Z,75.50
2023-05-15T01:14:27.476Z,75.39
2023-05-15T01:16:54.327Z,75.46
2023-05-15T01:19:21.328Z,74.90
2023-05-15T01:22:14.573Z,74.75
2023-05-15T01:24:41.275Z,74.41
2023-05-15T01:27:26.195Z,74.19
2023-05-15T01:30:39.526Z,74.32
2023-05-15T01:33:23.281Z,74.32
2023-05-15T01:36:06.052Z,74.20
2023-05-15T01:38:39.941Z,73.88
2023-05-15T01:41:29.372Z,73.81
2023-05-15T01:44:08.515Z,74.32
2023-05-15T01:46:39.699Z,74.61
2023-05-15T01:49:11.133Z,75.66
2023-05-15T01:51:39.414Z,75.43
2023-05-15T01:54:09.063Z,75.23
2023-05-15T01:56:37.681Z,75.34
2023-05-15T01:59:05.645Z,75.27
2023-05-15T02:01:33.241Z,74.96
2023-05-15T02:04:02.642Z,74.88
2023-05-15T02:06:32.348Z,74.14
2023-05-15T02:09:02.475Z,74.39
2023-05-15T02:11:30.901Z,74.04
2023-05-15T02:13:59.269Z,73.98
2023-05-15T02:16:26.044Z,73.46
2023-05-15T02:18:53.073Z,73.15
2023-05-15T02:21:25.279Z,72.91
2023-05-15T02:23:51.938Z,72.48
2023-05-15T02:26:31.178Z,72.82
2023-05-15T02:29:16.183Z,72.90
2023-05-15T02:32:00.226Z,73.85
2023-05-15T02:34:31.768Z,74.88
2023-05-15T02:37:01.437Z,74.68
2023-05-15T02:39:29.476Z,74.86
2023-05-15T02:41:58.070Z,74.77
2023-05-15T02:44:26.203Z,74.89
2023-05-15T02:46:54.258Z,75.21
2023-05-15T02:49:22.243Z,74.73
2023-05-15T02:51:49.083Z,74.87
2023-05-15T02:54:15.878Z,74.95
2023-05-15T02:56:42.859Z,74.69
2023-05-15T02:59:09.617Z,75.01
2023-05-15T03:01:36.435Z,75.71
2023-05-15T03:04:03.348Z,75.23
2023-05-15T03:06:31.696Z,74.95
2023-05-15T03:08:58.477Z,74.79
2023-05-15T03:11:25.314Z,74.36
2023-05-15T03:13:52.071Z,73.94
2023-05-15T03:16:18.838Z,73.57
2023-05-15T03:18:46.305Z,73.36
2023-05-15T03:21:13.544Z,73.76
2023-05-15T03:23:40.599Z,73.80
2023-05-15T03:26:07.417Z,74.49
2023-05-15T03:28:34.272Z,74.67
2023-05-15T03:31:01.162Z,74.51
2023-05-15T03:33:27.902Z,74.83
2023-05-15T03:35:54.602Z,74.67
2023-05-15T03:38:21.736Z,74.88
2023-05-15T03:40:50.854Z,74.69
2023-05-15T03:43:17.899Z,74.68
2023-05-15T03:45:44.657Z,74.44
2023-05-15T03:48:11.512Z,74.38
2023-05-15T03:50:39.418Z,74.65
2023-05-15T03:53:06.265Z,75.21
2023-05-15T03:55:33.217Z,74.94
2023-05-15T03:58:00.038Z,74.79
2023-05-15T04:00:27.985Z,74.97
2023-05-15T04:02:55.053Z,74.92
2023-05-15T04:05:22.633Z,74.73
2023-05-15T04:07:49.598Z,75.25
2023-05-15T04:10:16.394Z,74.36
2023-05-15T04:12:43.172Z,73.71
2023-05-15T04:15:26.337Z,73.61
2023-05-15T04:17:54.348Z,73.43
2023-05-15T04:20:23.020Z,72.49
2023-05-15T04:22:50.683Z,72.30
2023-05-15T04:25:18.175Z,71.24
2023-05-15T04:27:45.218Z,70.30
2023-05-15T04:30:12.780Z,70.12
2023-05-15T04:32:40.445Z,70.31
2023-05-15T04:35:13.389Z,70.19
2023-05-15T04:37:41.322Z,69.33
2023-05-15T04:40:09.476Z,68.45
2023-05-15T04:42:38.824Z,67.88
2023-05-15T04:45:07.027Z,66.59
2023-05-15T04:47:33.975Z,66.29
2023-05-15T04:50:03.289Z,66.24
2023-05-15T04:52:30.218Z,66.48
2023-05-15T04:54:57.002Z,66.10
2023-05-15T04:57:23.972Z,65.94
2023-05-15T04:59:50.756Z,65.38
2023-05-15T05:02:22.151Z,65.23
2023-05-15T05:04:49.248Z,63.90
2023-05-15T05:07:16.131Z,63.73
2023-05-15T05:09:43.038Z,63.03
2023-05-15T05:12:10.358Z,62.99
2023-05-15T05:14:37.238Z,62.24
2023-05-15T05:17:04.258Z,62.24
2023-05-15T05:19:31.161Z,61.84
2023-05-15T05:22:01.353Z,62.03
2023-05-15T05:24:28.559Z,62.54
2023-05-15T05:26:58.119Z,65.21
2023-05-15T05:29:25.701Z,61.14
2023-05-15T05:31:53.084Z,62.38
2023-05-15T05:34:20.374Z,60.68
2023-05-15T05:36:47.221Z,61.38
2023-05-15T05:39:14.356Z,61.02
2023-05-15T05:41:41.153Z,60.15
2023-05-15T05:44:08.044Z,59.43
2023-05-15T05:46:35.223Z,59.33
2023-05-15T05:49:02.029Z,60.02
2023-05-15T05:51:28.798Z,60.28
2023-05-15T05:53:55.585Z,58.04
2023-05-15T05:56:22.767Z,57.63
2023-05-15T05:58:49.577Z,57.29
2023-05-15T06:01:16.584Z,57.22
2023-05-15T06:03:43.797Z,56.16
2023-05-15T06:06:10.897Z,55.45
2023-05-15T06:08:37.740Z,54.90
2023-05-15T06:11:05.213Z,55.66
2023-05-15T06:13:31.954Z,55.73
2023-05-15T06:15:58.724Z,56.17
2023-05-15T06:18:25.593Z,56.29
2023-05-15T06:20:53.431Z,56.57
2023-05-15T06:23:20.637Z,56.88
2023-05-15T06:25:48.593Z,56.68
2023-05-15T06:28:15.430Z,56.58
2023-05-15T06:30:42.740Z,56.58
2023-05-15T06:33:09.633Z,56.61
2023-05-15T06:35:36.442Z,56.26
2023-05-15T06:38:03.333Z,56.12
2023-05-15T06:40:30.221Z,56.01
2023-05-15T06:42:56.913Z,55.65
2023-05-15T06:45:23.912Z,55.50
2023-05-15T06:47:50.941Z,55.16
2023-05-15T06:50:17.717Z,54.42
2023-05-15T06:52:44.512Z,54.20
2023-05-15T06:55:11.320Z,53.91
2023-05-15T06:57:38.123Z,53.46
2023-05-15T07:00:05.936Z,53.31
2023-05-15T07:02:32.695Z,52.40
2023-05-15T07:04:59.481Z,52.48
2023-05-15T07:07:26.266Z,51.97
2023-05-15T07:09:53.045Z,52.42
2023-05-15T07:12:19.755Z,51.86
2023-05-15T07:14:46.539Z,51.27
2023-05-15T07:17:13.790Z,51.20
2023-05-15T07:19:40.695Z,50.86
2023-05-15T07:22:07.918Z,50.64
2023-05-15T07:24:34.715Z,50.55
2023-05-15T07:27:01.552Z,50.44
2023-05-15T07:29:28.331Z,50.23
2023-05-15T07:31:55.156Z,50.37
2023-05-15T07:34:22.124Z,49.90
2023-05-15T07:36:49.001Z,49.80
2023-05-15T07:39:16.126Z,50.03
2023-05-15T07:41:42.885Z,49.40
2023-05-15T07:44:10.755Z,49.69
2023-05-15T07:46:39.015Z,48.39
2023-05-15T07:49:05.955Z,47.68
2023-05-15T07:51:32.714Z,48.24
2023-05-15T07:53:59.421Z,48.13
2023-05-15T07:56:26.262Z,48.30
2023-05-15T07:58:54.189Z,47.50
2023-05-15T08:01:20.875Z,47.84
2023-05-15T08:03:47.730Z,47.43
2023-05-15T08:06:14.659Z,47.07
2023-05-15T08:08:41.412Z,47.08
2023-05-15T08:11:08.244Z,46.96
2023-05-15T08:13:35.017Z,47.07
2023-05-15T08:16:01.771Z,46.32
2023-05-15T08:18:28.561Z,45.61
2023-05-15T08:20:55.308Z,45.59
2023-05-15T08:23:22.088Z,45.31
2023-05-15T08:25:48.796Z,45.04
2023-05-15T08:28:15.577Z,45.00
2023-05-15T08:30:42.397Z,44.62
2023-05-15T08:33:09.360Z,44.53
2023-05-15T08:35:36.146Z,43.82
2023-05-15T08:38:03.278Z,43.63
2023-05-15T08:40:39.308Z,42.35
2023-05-15T08:43:15.718Z,48.68
2023-05-15T08:45:43.662Z,42.66
2023-05-15T08:48:20.668Z,41.82
2023-05-15T08:50:47.896Z,42.53
2023-05-15T08:53:14.979Z,48.85
2023-05-15T08:55:42.448Z,42.10
2023-05-15T08:58:09.495Z,41.07
2023-05-15T09:00:36.383Z,41.76
2023-05-15T09:03:03.310Z,46.11
2023-05-15T09:05:30.790Z,40.45
2023-05-15T09:07:59.872Z,39.89
2023-05-15T09:10:26.793Z,40.19
2023-05-15T09:12:54.698Z,39.31
2023-05-15T09:15:25.414Z,41.59
2023-05-15T09:17:52.727Z,40.58
2023-05-15T09:20:37.757Z,42.86
2023-05-15T09:23:21.737Z,44.41
2023-05-15T09:25:53.217Z,43.67
2023-05-15T09:28:28.037Z,42.68
2023-05-15T09:31:03.023Z,43.02
2023-05-15T09:33:41.616Z,43.47
2023-05-15T09:36:09.763Z,43.14
2023-05-15T09:38:48.549Z,44.34
2023-05-15T09:41:24.324Z,42.40
2023-05-15T09:43:51.157Z,42.57
2023-05-15T09:46:18.059Z,43.24
2023-05-15T09:48:45.139Z,43.80
2023-05-15T09:51:17.911Z,44.66
2023-05-15T09:53:54.317Z,44.19
2023-05-15T09:56:22.160Z,44.46
2023-05-15T09:58:56.191Z,44.97
2023-05-15T10:01:24.198Z,44.08
2023-05-15T10:04:02.216Z,43.92
2023-05-15T10:06:42.787Z,42.99
2023-05-15T10:09:11.048Z,44.72
2023-05-15T10:11:39.774Z,43.93
2023-05-15T10:14:08.636Z,45.09
2023-05-15T10:16:37.018Z,41.64
2023-05-15T10:19:05.761Z,43.57
2023-05-15T10:21:34.967Z,44.17
2023-05-15T10:24:02.711Z,44.18
2023-05-15T10:26:36.408Z,43.11
2023-05-15T10:29:14.545Z,44.60
2023-05-15T10:31:41.676Z,44.11
2023-05-15T10:34:10.309Z,44.82
2023-05-15T10:36:38.583Z,45.60
2023-05-15T10:39:06.670Z,44.44
2023-05-15T10:41:37.347Z,44.38
2023-05-15T10:44:04.307Z,44.36
2023-05-15T10:46:34.819Z,44.59
2023-05-15T10:49:01.859Z,44.32
2023-05-15T10:51:31.871Z,45.38
2023-05-15T10:54:03.712Z,44.93
2023-05-15T10:56:31.011Z,44.62
2023-05-15T10:58:58.045Z,45.10
2023-05-15T11:01:33.110Z,46.07
2023-05-15T11:04:17.247Z,45.83
2023-05-15T11:06:46.113Z,45.69
2023-05-15T11:09:22.276Z,46.07
2023-05-15T11:11:52.412Z,46.74
2023-05-15T11:14:19.724Z,46.62
2023-05-15T11:16:55.868Z,48.83
2023-05-15T11:19:28.956Z,50.13
2023-05-15T11:22:00.057Z,50.30
2023-05-15T11:24:30.339Z,50.61
2023-05-15T11:27:01.739Z,50.37
2023-05-15T11:29:28.991Z,51.03
2023-05-15T11:31:55.979Z,52.16
2023-05-15T11:34:35.722Z,49.73
2023-05-15T11:37:02.430Z,49.73
2023-05-15T11:39:29.318Z,50.20
2023-05-15T11:41:56.817Z,49.55
2023-05-15T11:44:26.713Z,49.56
2023-05-15T11:46:53.764Z,50.57
2023-05-15T11:49:20.951Z,51.15
2023-05-15T11:51:51.506Z,51.73
2023-05-15T11:54:18.869Z,51.33
2023-05-15T11:56:45.743Z,49.12
2023-05-15T11:59:17.367Z,48.42
2023-05-15T12:01:47.701Z,47.48
2023-05-15T12:04:18.911Z,48.38
2023-05-15T12:06:49.886Z,48.78
2023-05-15T12:09:19.539Z,50.09
2023-05-15T12:11:52.016Z,50.61
2023-05-15T12:14:29.735Z,51.11
2023-05-15T12:17:04.550Z,52.20
2023-05-15T12:19:31.790Z,51.20
2023-05-15T12:21:58.593Z,52.15
2023-05-15T12:24:26.745Z,52.77
2023-05-15T12:26:55.953Z,52.59
2023-05-15T12:29:24.597Z,52.46
2023-05-15T12:31:53.997Z,52.81
2023-05-15T12:34:22.008Z,52.87
2023-05-15T12:36:48.904Z,52.05
2023-05-15T12:39:15.858Z,51.66
2023-05-15T12:41:46.028Z,50.74
2023-05-15T12:44:21.080Z,51.54
2023-05-15T12:46:48.316Z,50.94
2023-05-15T12:49:21.728Z,50.40
2023-05-15T12:51:48.620Z,51.09
2023-05-15T12:54:19.827Z,51.53
2023-05-15T12:56:50.002Z,51.51
2023-05-15T12:59:16.956Z,51.27
2023-05-15T13:01:45.136Z,52.26
2023-05-15T13:04:12.113Z,52.09
2023-05-15T13:06:46.385Z,51.23
2023-05-15T13:09:14.195Z,51.50
2023-05-15T13:11:45.101Z,52.74
2023-05-15T13:14:17.471Z,53.01
2023-05-15T13:16:47.402Z,53.91
2023-05-15T13:19:15.840Z,55.24
2023-05-15T13:21:43.957Z,56.43
2023-05-15T13:24:10.802Z,57.00
2023-05-15T13:26:37.927Z,57.39
2023-05-15T13:29:04.773Z,57.38
2023-05-15T13:31:32.215Z,56.90
2023-05-15T13:33:59.075Z,56.20
2023-05-15T13:36:25.838Z,55.07
2023-05-15T13:38:52.610Z,55.97
2023-05-15T13:41:19.397Z,56.10
2023-05-15T13:43:49.481Z,56.67
2023-05-15T13:46:16.492Z,56.52
2023-05-15T13:48:43.552Z,56.86
2023-05-15T13:51:10.649Z,57.01
2023-05-15T13:53:37.423Z,57.51
2023-05-15T13:56:04.308Z,57.81
2023-05-15T13:58:31.201Z,57.82
2023-05-15T14:00:58.013Z,57.99
2023-05-15T14:03:24.859Z,58.29
2023-05-15T14:05:51.925Z,58.21
2023-05-15T14:08:18.796Z,58.15
2023-05-15T14:10:45.605Z,58.28
2023-05-15T14:13:12.321Z,58.35
2023-05-15T14:15:39.035Z,58.17
2023-05-15T14:18:05.873Z,57.80
2023-05-15T14:20:32.639Z,57.72
2023-05-15T14:22:59.431Z,58.56
2023-05-15T14:25:26.172Z,58.28
2023-05-15T14:27:53.009Z,57.81
2023-05-15T14:30:21.945Z,58.16
2023-05-15T14:32:48.770Z,57.97
2023-05-15T14:35:15.645Z,58.00
2023-05-15T14:37:43.354Z,57.44
2023-05-15T14:40:10.732Z,57.46
2023-05-15T14:42:37.526Z,57.16
2023-05-15T14:45:05.039Z,55.08
2023-05-15T14:47:32.100Z,56.03
2023-05-15T14:49:59.040Z,56.65
2023-05-15T14:52:25.906Z,56.76
2023-05-15T14:55:04.921Z,57.06
2023-05-15T14:57:35.154Z,57.51
2023-05-15T15:00:02.134Z,57.63
2023-05-15T15:02:29.224Z,56.33
2023-05-15T15:04:56.082Z,56.08
2023-05-15T15:07:22.840Z,55.35
2023-05-15T15:09:49.612Z,55.09
2023-05-15T15:12:16.423Z,54.80
2023-05-15T15:14:43.162Z,54.76
2023-05-15T15:17:09.901Z,55.20
2023-05-15T15:19:36.602Z,55.18
2023-05-15T15:22:03.645Z,55.52
2023-05-15T15:24:30.451Z,55.16
2023-05-15T15:26:57.239Z,54.76
2023-05-15T15:29:24.049Z,54.98
2023-05-15T15:31:50.812Z,54.75
2023-05-15T15:34:17.627Z,55.59
2023-05-15T15:36:45.075Z,55.96
2023-05-15T15:39:13.188Z,57.37
2023-05-15T15:41:39.997Z,59.01
2023-05-15T15:44:06.806Z,59.46
2023-05-15T15:46:33.717Z,58.98
2023-05-15T15:49:00.561Z,59.69
2023-05-15T15:51:27.322Z,60.29
2023-05-15T15:53:54.087Z,61.04
2023-05-15T15:56:21.401Z,61.00
2023-05-15T15:58:48.289Z,61.30
2023-05-15T16:01:15.390Z,61.81
2023-05-15T16:03:42.298Z,62.03
2023-05-15T16:06:09.069Z,62.46
2023-05-15T16:08:35.848Z,62.19
2023-05-15T16:11:02.744Z,62.07
2023-05-15T16:13:29.564Z,60.81
2023-05-15T16:15:56.819Z,60.61
2023-05-15T16:18:23.774Z,59.93
2023-05-15T16:20:50.570Z,59.74
2023-05-15T16:23:17.498Z,59.67
2023-05-15T16:25:45.271Z,60.23
2023-05-15T16:28:12.236Z,59.80
2023-05-15T16:33:09.091Z,59.61
2023-05-15T16:35:39.341Z,58.18
2023-05-15T16:38:06.068Z,58.82
2023-05-15T16:40:32.889Z,58.26
2023-05-15T16:42:59.668Z,57.34
2023-05-15T16:45:26.526Z,56.40
2023-05-15T16:47:53.415Z,57.20
2023-05-15T16:50:20.618Z,57.43
2023-05-15T16:52:48.200Z,57.58
2023-05-15T16:55:16.508Z,57.81
2023-05-15T16:57:46.715Z,56.95
2023-05-15T17:00:14.532Z,57.23
2023-05-15T17:02:44.422Z,56.89
2023-05-15T17:05:11.665Z,59.07
2023-05-15T17:07:39.088Z,56.23
2023-05-15T17:10:07.462Z,57.45
2023-05-15T17:12:34.903Z,60.23
2023-05-15T17:15:01.814Z,59.57
2023-05-15T17:17:28.692Z,58.64
2023-05-15T17:19:56.162Z,59.64
2023-05-15T17:22:23.353Z,59.22
2023-05-15T17:24:52.196Z,59.75
2023-05-15T17:27:19.793Z,59.50
2023-05-15T17:29:47.465Z,59.11
2023-05-15T17:32:14.461Z,60.28
2023-05-15T17:34:41.384Z,60.27
2023-05-15T17:37:09.367Z,60.75
2023-05-15T17:39:36.242Z,59.38
2023-05-15T17:42:03.524Z,60.35
2023-05-15T17:44:31.279Z,59.10
2023-05-15T17:46:58.824Z,58.51
2023-05-15T17:49:26.482Z,59.30
2023-05-15T17:51:53.999Z,60.21
2023-05-15T17:54:20.928Z,60.59
2023-05-15T17:56:48.159Z,60.57
2023-05-15T17:59:14.953Z,61.13
2023-05-15T18:01:41.840Z,62.17
2023-05-15T18:04:08.858Z,61.88
2023-05-15T18:06:35.914Z,62.65
2023-05-15T18:09:03.318Z,62.81
2023-05-15T18:11:30.112Z,62.72
2023-05-15T18:13:56.992Z,62.85
2023-05-15T18:16:23.866Z,62.84
2023-05-15T18:18:52.238Z,62.72
2023-05-15T18:21:19.210Z,62.65
2023-05-15T18:23:46.150Z,62.93
2023-05-15T18:26:12.993Z,62.71
2023-05-15T18:28:39.808Z,62.56
2023-05-15T18:31:06.662Z,62.91
2023-05-15T18:33:34.192Z,63.32
2023-05-15T18:36:01.066Z,64.00
2023-05-15T18:38:28.300Z,63.89
2023-05-15T18:40:55.093Z,64.36
2023-05-15T18:43:21.849Z,64.89
2023-05-15T18:45:48.620Z,65.75
2023-05-15T18:48:15.711Z,66.34
2023-05-15T18:50:42.601Z,66.41
2023-05-15T18:53:09.418Z,66.74
2023-05-15T18:55:36.247Z,67.16
2023-05-15T18:58:03.056Z,67.32
2023-05-15T19:00:38.145Z,67.72
2023-05-15T19:03:08.597Z,67.74
2023-05-15T19:05:35.702Z,68.19
2023-05-15T19:08:03.152Z,68.71
2023-05-15T19:10:30.660Z,68.80
2023-05-15T19:12:58.386Z,69.49
2023-05-15T19:15:25.706Z,69.69
2023-05-15T19:17:52.831Z,70.39
2023-05-15T19:20:20.135Z,70.64
2023-05-15T19:22:46.931Z,70.74
2023-05-15T19:25:13.661Z,71.40
2023-05-15T19:27:40.646Z,71.30
2023-05-15T19:30:09.415Z,71.14
2023-05-15T19:32:36.633Z,71.62
2023-05-15T19:35:03.522Z,72.20
2023-05-15T19:37:30.434Z,71.98
2023-05-15T19:39:57.228Z,72.00
2023-05-15T19:42:24.034Z,72.39
2023-05-15T19:44:51.996Z,72.71
2023-05-15T19:47:18.741Z,72.70
2023-05-15T19:49:45.660Z,72.79
2023-05-15T19:52:12.435Z,72.98
2023-05-15T19:54:39.197Z,72.77
2023-05-15T19:57:05.959Z,72.91
2023-05-15T19:59:32.653Z,72.69
2023-05-15T20:02:00.425Z,72.86
2023-05-15T20:04:27.914Z,73.01
2023-05-15T20:06:54.836Z,73.28
2023-05-15T20:09:21.667Z,73.62
2023-05-15T20:11:48.450Z,74.11
2023-05-15T20:14:15.359Z,74.59
2023-05-15T20:16:42.176Z,74.51
2023-05-15T20:19:10.968Z,74.18
2023-05-15T20:21:38.388Z,74.42
2023-05-15T20:24:06.001Z,74.44
2023-05-15T20:26:32.789Z,74.02
2023-05-15T20:28:59.495Z,73.96
2023-05-15T20:31:26.248Z,73.98
2023-05-15T20:33:53.070Z,74.08
2023-05-15T20:36:20.220Z,73.92
2023-05-15T20:38:47.696Z,74.04
2023-05-15T20:41:16.500Z,73.59
2023-05-15T20:43:43.257Z,73.54
2023-05-15T20:46:10.267Z,73.72
2023-05-15T20:48:37.445Z,74.00
2023-05-15T20:51:04.428Z,74.43
2023-05-15T20:53:31.151Z,74.36
2023-05-15T20:55:57.937Z,74.52
2023-05-15T20:58:24.663Z,74.13
2023-05-15T21:00:51.478Z,74.45
2023-05-15T21:03:18.339Z,74.44
2023-05-15T21:05:45.322Z,74.45
2023-05-15T21:08:12.180Z,74.45
2023-05-15T21:10:38.949Z,74.18
2023-05-15T21:13:05.771Z,74.12
2023-05-15T21:15:32.528Z,73.93
2023-05-15T21:17:59.326Z,73.86
2023-05-15T21:20:27.096Z,73.58
2023-05-15T21:22:54.204Z,73.46
2023-05-15T21:25:21.552Z,73.33
2023-05-15T21:27:48.407Z,73.15
2023-05-15T21:30:15.350Z,72.45
2023-05-15T21:32:42.116Z,72.05
2023-05-15T21:35:10.246Z,71.47
2023-05-15T21:37:37.055Z,71.44
2023-05-15T21:40:04.980Z,70.99
2023-05-15T21:42:32.236Z,70.62
2023-05-15T21:44:59.525Z,70.47
2023-05-15T21:47:26.272Z,70.55
2023-05-15T21:49:53.094Z,70.08
2023-05-15T21:52:19.838Z,70.01
2023-05-15T21:54:46.633Z,69.95
2023-05-15T21:57:13.439Z,69.96
2023-05-15T21:59:40.281Z,69.92
2023-05-15T22:04:51.594Z,70.05
2023-05-15T22:07:18.665Z,70.28
2023-05-15T22:09:45.680Z,70.05
2023-05-15T22:12:13.435Z,69.95
2023-05-15T22:14:54.681Z,69.88
2023-05-15T22:17:27.340Z,69.18
2023-05-15T22:19:54.448Z,68.98
2023-05-15T22:22:21.473Z,69.13
2023-05-15T22:24:48.361Z,68.94
2023-05-15T22:27:16.836Z,68.90
2023-05-15T22:29:43.833Z,68.58
2023-05-15T22:32:10.854Z,68.69
2023-05-15T22:34:37.762Z,68.79
2023-05-15T22:37:04.828Z,68.79
2023-05-15T22:39:32.079Z,68.84
2023-05-15T22:41:58.904Z,69.07
2023-05-15T22:44:25.778Z,68.86
2023-05-15T22:46:53.228Z,68.77
2023-05-15T22:49:23.772Z,68.59
2023-05-15T22:51:50.885Z,68.12
2023-05-15T22:54:54.759Z,68.06
2023-05-15T22:57:21.661Z,68.02
2023-05-15T22:59:48.506Z,67.63
2023-05-15T23:02:15.450Z,68.19
2023-05-15T23:04:43.319Z,67.83
2023-05-15T23:07:10.241Z,67.96
2023-05-15T23:09:37.090Z,68.27
2023-05-15T23:12:04.499Z,68.39
2023-05-15T23:14:31.361Z,68.18
2023-05-15T23:16:58.176Z,67.87
2023-05-15T23:19:25.083Z,67.91
2023-05-15T23:21:52.160Z,68.38
2023-05-15T23:24:18.998Z,68.47
2023-05-15T23:26:47.073Z,68.63
2023-05-15T23:29:14.669Z,68.96
2023-05-15T23:31:43.267Z,69.03
2023-05-15T23:34:10.221Z,68.89
2023-05-15T23:36:37.053Z,69.06
2023-05-15T23:39:05.156Z,68.75
2023-05-15T23:41:31.990Z,68.91
2023-05-15T23:43:58.804Z,68.76
2023-05-15T23:46:25.817Z,68.50
2023-05-15T23:48:52.753Z,68.52
2023-05-15T23:51:20.611Z,68.49
2023-05-15T23:53:47.531Z,68.75
2023-05-15T23:56:14.368Z,68.65
2023-05-15T23:58:41.811Z,69.09
